createdAt,value
2018-12-27T00:00:59.895Z,7.25
2018-12-27T00:03:26.849Z,7.06
2018-12-27T00:05:53.766Z,7.12
2018-12-27T00:08:20.669Z,7.12
2018-12-27T00:10:48.569Z,7.00
2018-12-27T00:13:15.520Z,7.06
2018-12-27T00:15:42.469Z,7.00
2018-12-27T00:18:09.384Z,7.00
2018-12-27T00:20:36.292Z,6.87
2018-12-27T00:23:03.288Z,6.94
2018-12-27T00:25:30.372Z,7.12
2018-12-27T00:27:57.506Z,6.87
2018-12-27T00:30:24.528Z,7.12
2018-12-27T00:32:51.452Z,6.94
2018-12-27T00:35:18.334Z,7.06
2018-12-27T00:37:45.381Z,7.06
2018-12-27T00:40:12.276Z,6.94
2018-12-27T00:42:39.200Z,7.06
2018-12-27T00:45:06.183Z,7.12
2018-12-27T00:47:33.129Z,6.87
2018-12-27T00:50:00.019Z,6.87
2018-12-27T00:52:26.964Z,6.94
2018-12-27T00:54:54.123Z,6.94
2018-12-27T00:57:21.132Z,7.06
2018-12-27T00:59:48.164Z,7.06
2018-12-27T01:02:15.247Z,6.94
2018-12-27T01:04:42.665Z,7.00
2018-12-27T01:07:09.608Z,7.00
2018-12-27T01:09:36.522Z,7.12
2018-12-27T01:12:03.498Z,7.06
2018-12-27T01:14:30.416Z,6.94
2018-12-27T01:16:57.334Z,7.00
2018-12-27T01:19:24.272Z,7.00
2018-12-27T01:21:51.230Z,7.25
2018-12-27T01:24:18.162Z,7.06
2018-12-27T01:26:45.133Z,6.75
2018-12-27T01:29:13.059Z,7.25
2018-12-27T01:31:39.979Z,7.25
2018-12-27T01:34:06.951Z,6.87
2018-12-27T01:36:33.937Z,6.94
2018-12-27T01:39:00.869Z,6.94
2018-12-27T01:41:27.787Z,7.12
2018-12-27T01:43:54.779Z,7.12
2018-12-27T01:46:21.712Z,7.06
2018-12-27T01:48:48.748Z,6.94
2018-12-27T01:51:15.702Z,6.87
2018-12-27T01:53:42.634Z,6.87
2018-12-27T01:56:09.622Z,6.81
2018-12-27T01:58:36.627Z,7.06
2018-12-27T02:01:03.576Z,6.94
2018-12-27T02:03:30.518Z,7.00
2018-12-27T02:05:57.470Z,6.81
2018-12-27T02:08:24.409Z,6.75
2018-12-27T02:10:51.350Z,7.00
2018-12-27T02:13:18.368Z,6.87
2018-12-27T02:15:45.315Z,7.06
2018-12-27T02:18:12.254Z,6.81
2018-12-27T02:20:39.203Z,7.19
2018-12-27T02:23:06.116Z,6.94
2018-12-27T02:25:33.032Z,7.19
2018-12-27T02:28:00.079Z,6.94
2018-12-27T02:30:26.988Z,6.94
2018-12-27T02:32:53.930Z,6.94
2018-12-27T02:35:20.880Z,6.75
2018-12-27T02:37:48.508Z,6.75
2018-12-27T02:40:15.445Z,6.94
2018-12-27T02:42:42.387Z,6.94
2018-12-27T02:45:09.309Z,6.87
2018-12-27T02:47:36.221Z,6.81
2018-12-27T02:50:03.204Z,7.12
2018-12-27T02:52:30.174Z,7.06
2018-12-27T02:54:57.726Z,7.00
2018-12-27T02:57:24.702Z,7.06
2018-12-27T02:59:51.658Z,6.75
2018-12-27T03:02:18.613Z,7.06
2018-12-27T03:04:46.075Z,6.94
2018-12-27T03:07:12.998Z,7.00
2018-12-27T03:09:40.013Z,6.87
2018-12-27T03:12:06.965Z,7.00
2018-12-27T03:14:33.959Z,6.87
2018-12-27T03:17:00.895Z,7.19
2018-12-27T03:19:27.845Z,7.00
2018-12-27T03:21:54.781Z,7.06
2018-12-27T03:24:21.747Z,7.06
2018-12-27T03:26:48.792Z,7.00
2018-12-27T03:29:15.750Z,6.75
2018-12-27T03:31:42.715Z,7.06
2018-12-27T03:34:09.732Z,7.06
2018-12-27T03:36:36.645Z,6.94
2018-12-27T03:39:04.765Z,6.87
2018-12-27T03:41:31.763Z,6.87
2018-12-27T03:43:58.637Z,6.81
2018-12-27T03:46:25.606Z,6.56
2018-12-27T03:48:52.570Z,7.00
2018-12-27T03:51:19.533Z,7.00
2018-12-27T03:53:46.451Z,7.00
2018-12-27T03:56:14.408Z,6.81
2018-12-27T03:58:41.378Z,6.87
2018-12-27T04:01:08.325Z,6.87
2018-12-27T04:03:35.281Z,6.75
2018-12-27T04:06:02.274Z,6.87
2018-12-27T04:08:29.255Z,6.69
2018-12-27T04:10:56.206Z,6.87
2018-12-27T04:13:23.179Z,6.87
2018-12-27T04:15:50.316Z,6.87
2018-12-27T04:18:17.271Z,6.62
2018-12-27T04:20:44.167Z,6.62
2018-12-27T04:23:11.113Z,6.75
2018-12-27T04:25:38.062Z,6.81
2018-12-27T04:28:05.963Z,6.56
2018-12-27T04:30:33.000Z,6.69
2018-12-27T04:32:59.986Z,6.69
2018-12-27T04:35:26.945Z,6.56
2018-12-27T04:37:54.926Z,6.56
2018-12-27T04:40:21.904Z,6.62
2018-12-27T04:42:49.974Z,6.87
2018-12-27T04:45:16.931Z,6.81
2018-12-27T04:47:43.862Z,6.75
2018-12-27T04:50:10.834Z,6.81
2018-12-27T04:52:37.778Z,6.75
2018-12-27T04:55:04.783Z,6.75
2018-12-27T04:57:31.747Z,6.56
2018-12-27T04:59:58.700Z,6.56
2018-12-27T05:02:25.613Z,6.87
2018-12-27T05:04:52.594Z,6.75
2018-12-27T05:07:19.599Z,6.75
2018-12-27T05:09:46.521Z,6.94
2018-12-27T05:12:13.431Z,6.94
2018-12-27T05:14:40.389Z,6.56
2018-12-27T05:17:07.389Z,6.62
2018-12-27T05:19:34.347Z,6.44
2018-12-27T05:22:01.284Z,6.81
2018-12-27T05:24:28.198Z,6.75
2018-12-27T05:26:55.207Z,6.62
2018-12-27T05:29:22.157Z,6.56
2018-12-27T05:31:49.141Z,6.56
2018-12-27T05:34:16.100Z,6.56
2018-12-27T05:36:43.037Z,6.81
2018-12-27T05:39:09.985Z,6.87
2018-12-27T05:41:36.893Z,6.87
2018-12-27T05:44:03.841Z,6.62
2018-12-27T05:46:30.739Z,6.75
2018-12-27T05:48:57.651Z,6.81
2018-12-27T05:51:25.213Z,6.75
2018-12-27T05:53:52.135Z,6.62
2018-12-27T05:56:19.068Z,6.75
2018-12-27T05:58:45.996Z,6.62
2018-12-27T06:01:12.951Z,6.69
2018-12-27T06:03:39.890Z,6.62
2018-12-27T06:06:06.884Z,6.56
2018-12-27T06:08:33.822Z,6.75
2018-12-27T06:11:00.807Z,6.62
2018-12-27T06:13:27.746Z,6.56
2018-12-27T06:15:54.773Z,6.50
2018-12-27T06:18:21.721Z,6.81
2018-12-27T06:20:48.725Z,6.62
2018-12-27T06:23:15.663Z,6.56
2018-12-27T06:25:42.638Z,6.25
2018-12-27T06:28:09.616Z,6.37
2018-12-27T06:30:36.553Z,6.31
2018-12-27T06:33:03.516Z,6.25
2018-12-27T06:35:30.547Z,6.31
2018-12-27T06:37:57.504Z,6.50
2018-12-27T06:40:24.444Z,6.44
2018-12-27T06:42:51.442Z,6.19
2018-12-27T06:45:18.400Z,6.44
2018-12-27T06:47:45.416Z,6.31
2018-12-27T06:50:12.411Z,6.50
2018-12-27T06:52:39.377Z,6.50
2018-12-27T06:55:06.359Z,6.12
2018-12-27T06:57:33.246Z,6.12
2018-12-27T07:00:00.196Z,6.25
2018-12-27T07:02:27.147Z,6.25
2018-12-27T07:04:54.151Z,6.44
2018-12-27T07:07:21.078Z,6.44
2018-12-27T07:09:48.225Z,6.12
2018-12-27T07:12:15.129Z,6.06
2018-12-27T07:14:42.084Z,6.12
2018-12-27T07:17:09.026Z,6.12
2018-12-27T07:19:36.057Z,5.94
2018-12-27T07:22:03.017Z,6.06
2018-12-27T07:24:29.963Z,5.94
2018-12-27T07:26:56.906Z,5.94
2018-12-27T07:29:23.820Z,6.00
2018-12-27T07:31:50.744Z,5.69
2018-12-27T07:34:17.679Z,5.75
2018-12-27T07:36:44.610Z,5.81
2018-12-27T07:39:11.591Z,5.69
2018-12-27T07:41:38.518Z,5.62
2018-12-27T07:44:05.448Z,5.87
2018-12-27T07:46:32.427Z,5.56
2018-12-27T07:48:59.322Z,5.69
2018-12-27T07:51:26.266Z,5.56
2018-12-27T07:53:53.215Z,6.00
2018-12-27T07:56:20.239Z,5.62
2018-12-27T07:58:47.235Z,5.75
2018-12-27T08:01:14.606Z,5.81
2018-12-27T08:03:41.517Z,5.75
2018-12-27T08:06:08.459Z,5.87
2018-12-27T08:08:35.382Z,5.56
2018-12-27T08:11:02.288Z,5.81
2018-12-27T08:13:29.235Z,5.50
2018-12-27T08:15:56.196Z,5.44
2018-12-27T08:18:23.159Z,5.69
2018-12-27T08:20:50.083Z,5.62
2018-12-27T08:23:17.006Z,5.75
2018-12-27T08:25:43.908Z,5.62
2018-12-27T08:28:10.919Z,5.75
2018-12-27T08:30:37.831Z,5.56
2018-12-27T08:33:05.802Z,5.37
2018-12-27T08:35:32.763Z,5.44
2018-12-27T08:37:59.675Z,5.56
2018-12-27T08:40:26.905Z,5.56
2018-12-27T08:42:53.868Z,5.87
2018-12-27T08:45:20.779Z,5.87
2018-12-27T08:47:47.945Z,5.81
2018-12-27T08:50:14.857Z,5.87
2018-12-27T08:52:41.802Z,5.87
2018-12-27T08:55:08.746Z,6.00
2018-12-27T08:57:35.660Z,5.75
2018-12-27T09:00:03.186Z,5.75
2018-12-27T09:02:30.102Z,5.87
2018-12-27T09:04:57.143Z,5.81
2018-12-27T09:07:24.196Z,5.75
2018-12-27T09:09:51.137Z,5.62
2018-12-27T09:12:18.130Z,5.75
2018-12-27T09:14:45.134Z,5.50
2018-12-27T09:17:12.137Z,5.81
2018-12-27T09:19:39.059Z,5.56
2018-12-27T09:22:06.041Z,5.75
2018-12-27T09:24:33.036Z,5.75
2018-12-27T09:27:00.605Z,5.75
2018-12-27T09:29:27.651Z,5.87
2018-12-27T09:31:55.473Z,5.87
2018-12-27T09:34:22.420Z,5.81
2018-12-27T09:36:50.388Z,5.81
2018-12-27T09:39:16.441Z,5.81
2018-12-27T09:41:43.477Z,5.75
2018-12-27T09:44:10.488Z,5.87
2018-12-27T09:46:37.505Z,5.94
2018-12-27T09:49:04.547Z,5.75
2018-12-27T09:51:31.757Z,5.81
2018-12-27T09:53:59.540Z,5.87
2018-12-27T09:56:26.474Z,5.75
2018-12-27T09:58:53.518Z,5.81
2018-12-27T10:01:21.074Z,5.81
2018-12-27T10:03:48.176Z,5.94
2018-12-27T10:06:15.122Z,5.81
2018-12-27T10:08:42.060Z,5.81
2018-12-27T10:11:08.958Z,5.81
2018-12-27T10:13:35.864Z,5.69
2018-12-27T10:16:02.836Z,5.81
2018-12-27T10:18:29.833Z,5.81
2018-12-27T10:20:56.851Z,6.12
2018-12-27T10:23:23.815Z,6.12
2018-12-27T10:25:50.931Z,6.12
2018-12-27T10:28:18.659Z,6.00
2018-12-27T10:30:45.662Z,6.12
2018-12-27T10:33:12.640Z,6.12
2018-12-27T10:35:41.318Z,6.31
2018-12-27T10:38:06.554Z,6.31
2018-12-27T10:40:33.509Z,6.31
2018-12-27T10:43:00.397Z,6.31
2018-12-27T10:45:27.389Z,6.00
2018-12-27T10:47:54.316Z,6.00
2018-12-27T10:50:21.270Z,6.00
2018-12-27T10:52:48.232Z,6.00
2018-12-27T10:55:15.158Z,5.94
2018-12-27T10:57:42.074Z,6.06
2018-12-27T11:00:10.387Z,5.87
2018-12-27T11:02:39.027Z,6.19
2018-12-27T11:05:06.055Z,6.12
2018-12-27T11:07:33.591Z,6.12
2018-12-27T11:10:00.574Z,6.12
2018-12-27T11:12:27.553Z,6.00
2018-12-27T11:14:54.555Z,6.25
2018-12-27T11:17:21.581Z,6.00
2018-12-27T11:19:48.618Z,6.00
2018-12-27T11:22:15.552Z,6.50
2018-12-27T11:24:42.514Z,6.31
2018-12-27T11:27:09.488Z,6.44
2018-12-27T11:29:36.512Z,6.50
2018-12-27T11:32:03.510Z,6.56
2018-12-27T11:34:30.536Z,6.37
2018-12-27T11:36:57.511Z,6.19
2018-12-27T11:39:24.451Z,6.62
2018-12-27T11:41:51.345Z,6.50
2018-12-27T11:44:18.252Z,6.69
2018-12-27T11:46:45.205Z,6.62
2018-12-27T11:49:12.149Z,6.62
2018-12-27T11:51:39.105Z,6.44
2018-12-27T11:54:06.029Z,6.62
2018-12-27T11:56:32.974Z,6.62
2018-12-27T11:58:59.907Z,6.37
2018-12-27T12:01:26.923Z,6.37
2018-12-27T12:03:53.871Z,6.37
2018-12-27T12:06:20.913Z,6.62
2018-12-27T12:08:48.966Z,6.56
2018-12-27T12:11:16.498Z,6.37
2018-12-27T12:13:43.485Z,6.37
2018-12-27T12:16:10.433Z,6.31
2018-12-27T12:18:37.342Z,6.31
2018-12-27T12:21:04.410Z,6.25
2018-12-27T12:23:31.330Z,6.25
2018-12-27T12:25:58.686Z,6.62
2018-12-27T12:28:25.627Z,6.31
2018-12-27T12:30:52.567Z,6.44
2018-12-27T12:33:19.517Z,6.06
2018-12-27T12:35:46.675Z,6.31
2018-12-27T12:38:13.636Z,6.31
2018-12-27T12:40:40.561Z,6.37
2018-12-27T12:43:07.523Z,6.19
2018-12-27T12:45:34.528Z,6.19
2018-12-27T12:48:01.505Z,6.12
2018-12-27T12:50:28.719Z,6.19
2018-12-27T12:52:55.811Z,6.31
2018-12-27T12:55:22.723Z,6.37
2018-12-27T12:57:49.662Z,6.12
2018-12-27T13:00:16.694Z,6.50
2018-12-27T13:02:44.000Z,6.44
2018-12-27T13:05:10.982Z,6.31
2018-12-27T13:07:37.933Z,6.44
2018-12-27T13:10:05.431Z,6.44
2018-12-27T13:12:32.469Z,6.44
2018-12-27T13:15:00.297Z,6.44
2018-12-27T13:17:27.289Z,6.37
2018-12-27T13:19:54.215Z,6.37
2018-12-27T13:22:21.177Z,6.44
2018-12-27T13:24:48.835Z,6.56
2018-12-27T13:27:15.772Z,6.37
2018-12-27T13:29:42.733Z,6.37
2018-12-27T13:32:09.695Z,6.62
2018-12-27T13:34:36.621Z,6.62
2018-12-27T13:37:03.538Z,6.62
2018-12-27T13:39:30.568Z,6.50
2018-12-27T13:41:57.515Z,6.50
2018-12-27T13:44:24.471Z,6.50
2018-12-27T13:46:51.914Z,6.25
2018-12-27T13:49:18.843Z,6.12
2018-12-27T13:51:45.802Z,6.12
2018-12-27T13:54:12.708Z,6.12
2018-12-27T13:56:39.788Z,6.12
2018-12-27T13:59:06.717Z,6.25
2018-12-27T14:01:33.721Z,6.25
2018-12-27T14:04:01.177Z,6.25
2018-12-27T14:06:32.656Z,6.25
2018-12-27T14:08:55.429Z,6.44
2018-12-27T14:11:22.350Z,6.56
2018-12-27T14:13:49.373Z,6.25
2018-12-27T14:16:16.341Z,6.56
2018-12-27T14:18:43.316Z,6.44
2018-12-27T14:21:10.250Z,6.44
2018-12-27T14:23:37.202Z,6.31
2018-12-27T14:26:04.177Z,6.31
2018-12-27T14:28:31.134Z,6.50
2018-12-27T14:30:58.131Z,6.69
2018-12-27T14:33:25.072Z,6.44
2018-12-27T14:35:52.018Z,6.56
2018-12-27T14:38:18.984Z,6.69
2018-12-27T14:40:45.905Z,6.44
2018-12-27T14:43:12.904Z,6.25
2018-12-27T14:45:39.903Z,6.44
2018-12-27T14:48:06.876Z,6.56
2018-12-27T14:50:33.960Z,6.56
2018-12-27T14:53:00.905Z,6.75
2018-12-27T14:55:28.723Z,6.56
2018-12-27T14:57:56.463Z,6.31
2018-12-27T15:00:23.439Z,6.37
2018-12-27T15:02:51.059Z,6.25
2018-12-27T15:05:18.033Z,6.44
2018-12-27T15:07:44.967Z,6.19
2018-12-27T15:10:12.031Z,6.44
2018-12-27T15:12:39.249Z,6.50
2018-12-27T15:15:06.287Z,6.50
2018-12-27T15:17:33.290Z,6.56
2018-12-27T15:20:00.230Z,6.31
2018-12-27T15:22:27.182Z,6.56
2018-12-27T15:24:54.181Z,6.56
2018-12-27T15:27:21.051Z,6.44
2018-12-27T15:29:48.844Z,6.50
2018-12-27T15:32:15.786Z,6.50
2018-12-27T15:34:42.708Z,6.50
2018-12-27T15:37:09.618Z,6.50
2018-12-27T15:39:36.580Z,6.31
2018-12-27T15:42:03.595Z,6.31
2018-12-27T15:44:30.543Z,6.31
2018-12-27T15:46:58.651Z,6.62
2018-12-27T15:49:25.589Z,6.50
2018-12-27T15:51:52.649Z,6.31
2018-12-27T15:54:20.071Z,6.44
2018-12-27T15:56:47.042Z,6.44
2018-12-27T15:59:15.097Z,6.62
2018-12-27T16:01:42.069Z,6.19
2018-12-27T16:04:09.127Z,6.25
2018-12-27T16:06:36.113Z,6.37
2018-12-27T16:09:05.601Z,6.37
2018-12-27T16:11:32.688Z,6.44
2018-12-27T16:13:59.634Z,6.44
2018-12-27T16:16:26.542Z,6.56
2018-12-27T16:18:54.275Z,6.56
2018-12-27T16:21:21.741Z,6.50
2018-12-27T16:23:49.629Z,6.37
2018-12-27T16:26:16.558Z,6.44
2018-12-27T16:28:43.505Z,6.31
2018-12-27T16:31:10.506Z,6.31
2018-12-27T16:33:37.491Z,6.69
2018-12-27T16:36:04.407Z,6.62
2018-12-27T16:38:32.219Z,6.44
2018-12-27T16:40:58.320Z,6.44
2018-12-27T16:43:25.937Z,6.62
2018-12-27T16:45:52.862Z,6.62
2018-12-27T16:48:19.874Z,6.75
2018-12-27T16:50:47.879Z,6.62
2018-12-27T16:53:14.788Z,6.69
2018-12-27T16:55:41.836Z,6.62
2018-12-27T16:58:09.551Z,6.50
2018-12-27T17:00:36.544Z,6.31
2018-12-27T17:03:03.499Z,6.56
2018-12-27T17:05:30.440Z,6.56
2018-12-27T17:07:57.398Z,6.56
2018-12-27T17:10:24.417Z,6.62
2018-12-27T17:12:51.393Z,6.62
2018-12-27T17:15:18.428Z,6.37
2018-12-27T17:17:45.561Z,6.69
2018-12-27T17:20:13.155Z,6.62
2018-12-27T17:22:40.412Z,6.56
2018-12-27T17:25:07.404Z,6.75
2018-12-27T17:27:34.594Z,6.62
2018-12-27T17:30:01.743Z,6.62
2018-12-27T17:32:28.676Z,6.87
2018-12-27T17:34:55.701Z,6.69
2018-12-27T17:37:23.388Z,6.69
2018-12-27T17:39:49.667Z,6.56
2018-12-27T17:42:16.570Z,6.62
2018-12-27T17:44:44.409Z,6.62
2018-12-27T17:47:11.329Z,6.62
2018-12-27T17:49:38.291Z,6.62
2018-12-27T17:52:05.705Z,6.69
2018-12-27T17:54:32.617Z,6.50
2018-12-27T17:56:59.523Z,6.50
2018-12-27T17:59:26.458Z,6.69
2018-12-27T18:01:53.619Z,6.81
2018-12-27T18:04:20.647Z,6.81
2018-12-27T18:06:48.643Z,6.81
2018-12-27T18:09:15.631Z,6.81
2018-12-27T18:11:43.065Z,6.75
2018-12-27T18:14:09.982Z,6.87
2018-12-27T18:16:36.997Z,6.81
2018-12-27T18:19:04.017Z,6.56
2018-12-27T18:21:30.921Z,6.62
2018-12-27T18:23:57.860Z,6.81
2018-12-27T18:26:24.790Z,6.62
2018-12-27T18:28:51.746Z,6.81
2018-12-27T18:31:18.650Z,6.69
2018-12-27T18:33:45.570Z,6.56
2018-12-27T18:36:12.486Z,6.50
2018-12-27T18:38:39.433Z,6.56
2018-12-27T18:41:06.374Z,6.62
2018-12-27T18:43:33.321Z,6.62
2018-12-27T18:46:00.302Z,6.62
2018-12-27T18:48:27.318Z,6.94
2018-12-27T18:50:54.297Z,6.81
2018-12-27T18:53:21.237Z,6.50
2018-12-27T18:55:49.034Z,6.37
2018-12-27T18:58:15.978Z,6.56
2018-12-27T19:00:42.891Z,6.75
2018-12-27T19:03:09.834Z,6.50
2018-12-27T19:05:36.750Z,6.56
2018-12-27T19:08:03.735Z,6.69
2018-12-27T19:10:30.676Z,6.44
2018-12-27T19:13:06.355Z,6.81
2018-12-27T19:15:52.748Z,6.62
2018-12-27T19:18:27.516Z,6.69
2018-12-27T19:20:59.813Z,6.62
2018-12-27T19:23:27.626Z,6.50
2018-12-27T19:25:54.608Z,6.50
2018-12-27T19:28:21.527Z,6.94
2018-12-27T19:30:48.589Z,6.69
2018-12-27T19:33:15.521Z,6.56
2018-12-27T19:35:42.441Z,6.56
2018-12-27T19:38:09.397Z,6.37
2018-12-27T19:40:36.398Z,6.62
2018-12-27T19:43:03.379Z,6.62
2018-12-27T19:45:30.443Z,6.37
2018-12-27T19:47:57.395Z,6.37
2018-12-27T19:50:24.375Z,6.69
2018-12-27T19:52:51.387Z,6.56
2018-12-27T19:55:19.268Z,6.44
2018-12-27T19:57:46.936Z,6.25
2018-12-27T20:00:13.923Z,6.50
2018-12-27T20:02:40.983Z,6.62
2018-12-27T20:05:08.135Z,6.50
2018-12-27T20:07:35.124Z,6.50
2018-12-27T20:10:02.678Z,6.56
2018-12-27T20:12:29.677Z,6.37
2018-12-27T20:14:56.711Z,6.31
2018-12-27T20:17:23.635Z,6.50
2018-12-27T20:19:50.719Z,6.50
2018-12-27T20:22:17.676Z,6.44
2018-12-27T20:24:45.016Z,6.56
2018-12-27T20:27:11.938Z,6.50
2018-12-27T20:29:38.885Z,6.56
2018-12-27T20:32:05.852Z,6.62
2018-12-27T20:34:32.803Z,6.56
2018-12-27T20:36:59.757Z,6.50
2018-12-27T20:39:27.330Z,6.50
2018-12-27T20:41:54.295Z,6.50
2018-12-27T20:44:21.265Z,6.56
2018-12-27T20:46:49.187Z,6.31
2018-12-27T20:49:16.342Z,6.62
2018-12-27T20:51:43.436Z,6.19
2018-12-27T20:54:10.456Z,6.56
2018-12-27T20:56:37.390Z,6.31
2018-12-27T20:59:04.402Z,6.69
2018-12-27T21:01:31.347Z,6.56
2018-12-27T21:03:58.376Z,6.37
2018-12-27T21:06:25.350Z,6.31
2018-12-27T21:08:52.385Z,6.56
2018-12-27T21:11:19.363Z,6.75
2018-12-27T21:13:46.288Z,6.75
2018-12-27T21:16:13.263Z,6.62
2018-12-27T21:18:40.371Z,6.69
2018-12-27T21:21:07.325Z,6.69
2018-12-27T21:23:34.999Z,6.56
2018-12-27T21:26:02.110Z,6.50
2018-12-27T21:28:29.077Z,6.44
2018-12-27T21:30:56.026Z,6.44
2018-12-27T21:33:23.138Z,6.31
2018-12-27T21:35:50.222Z,6.56
2018-12-27T21:38:21.381Z,6.75
2018-12-27T21:40:44.170Z,6.62
2018-12-27T21:43:11.228Z,6.50
2018-12-27T21:45:38.176Z,6.50
2018-12-27T21:48:05.194Z,6.56
2018-12-27T21:50:32.631Z,6.56
2018-12-27T21:52:59.583Z,6.56
2018-12-27T21:55:26.540Z,6.44
2018-12-27T21:57:53.567Z,6.50
2018-12-27T22:00:21.625Z,6.31
2018-12-27T22:02:49.309Z,6.56
2018-12-27T22:05:16.256Z,6.56
2018-12-27T22:07:43.218Z,6.56
2018-12-27T22:10:10.161Z,6.44
2018-12-27T22:12:37.086Z,6.44
2018-12-27T22:15:04.225Z,6.69
2018-12-27T22:17:31.168Z,6.56
2018-12-27T22:19:58.110Z,6.56
2018-12-27T22:22:25.094Z,6.62
2018-12-27T22:24:52.040Z,6.50
2018-12-27T22:27:18.995Z,6.69
2018-12-27T22:29:46.262Z,6.56
2018-12-27T22:32:13.261Z,6.56
2018-12-27T22:34:40.212Z,6.44
2018-12-27T22:37:07.142Z,6.50
2018-12-27T22:39:34.071Z,6.81
2018-12-27T22:42:00.983Z,6.62
2018-12-27T22:44:27.940Z,6.56
2018-12-27T22:46:54.980Z,6.31
2018-12-27T22:49:21.983Z,6.50
2018-12-27T22:51:49.001Z,6.44
2018-12-27T22:54:15.962Z,6.69
2018-12-27T22:56:42.943Z,6.44
2018-12-27T22:59:09.845Z,6.44
2018-12-27T23:01:36.844Z,6.37
2018-12-27T23:04:03.806Z,6.37
2018-12-27T23:06:30.794Z,6.37
2018-12-27T23:08:57.838Z,6.44
2018-12-27T23:11:24.790Z,6.37
2018-12-27T23:13:51.757Z,6.31
2018-12-27T23:16:18.672Z,6.31
2018-12-27T23:18:45.924Z,6.12
2018-12-27T23:21:12.855Z,6.12
2018-12-27T23:23:40.322Z,6.25
2018-12-27T23:26:07.239Z,6.25
2018-12-27T23:28:34.232Z,6.31
2018-12-27T23:31:01.747Z,6.37
2018-12-27T23:33:28.693Z,6.44
2018-12-27T23:35:55.651Z,6.31
2018-12-27T23:38:22.636Z,6.12
2018-12-27T23:40:49.665Z,6.44
2018-12-27T23:43:16.606Z,6.44
2018-12-27T23:45:43.585Z,6.44
2018-12-27T23:48:10.549Z,6.56
2018-12-27T23:50:37.525Z,6.37
2018-12-27T23:53:04.457Z,6.37
2018-12-27T23:55:31.400Z,6.31
2018-12-27T23:57:58.331Z,6.31
